sensor_id;sensor_type;location;lat;lon;timestamp;pressure;altitude;pressure_sealevel;temperature;humidity
67430;BME280;54298;52.076;5.264;2023-03-16T00:00:35;101695.0;;;6.16;62.2
67430;BME280;54298;52.076;5.264;2023-03-16T00:02:12;101690.0;;;6.25;62.0
67430;BME280;54298;52.076;5.264;2023-03-16T00:05:24;101692.0;;;6.16;62.24
67430;BME280;54298;52.076;5.264;2023-03-16T00:07:00;101687.0;;;6.1;62.71
67430;BME280;54298;52.076;5.264;2023-03-16T00:08:36;101684.0;;;6.03;62.91
67430;BME280;54298;52.076;5.264;2023-03-16T00:11:49;101681.0;;;6.2;62.76
67430;BME280;54298;52.076;5.264;2023-03-16T00:13:25;101680.0;;;6.25;62.72
67430;BME280;54298;52.076;5.264;2023-03-16T00:15:02;101672.0;;;6.48;61.99
67430;BME280;54298;52.076;5.264;2023-03-16T00:18:14;101665.0;;;6.49;61.96
67430;BME280;54298;52.076;5.264;2023-03-16T00:19:51;101669.0;;;6.32;62.46
67430;BME280;54298;52.076;5.264;2023-03-16T00:21:29;101669.0;;;6.4;62.55
67430;BME280;54298;52.076;5.264;2023-03-16T00:23:05;101666.0;;;6.32;62.55
67430;BME280;54298;52.076;5.264;2023-03-16T00:26:17;101669.0;;;6.29;63.05
67430;BME280;54298;52.076;5.264;2023-03-16T00:27:53;101666.0;;;6.17;63.52
67430;BME280;54298;52.076;5.264;2023-03-16T00:29:30;101660.0;;;6.24;63.22
67430;BME280;54298;52.076;5.264;2023-03-16T00:32:45;101655.0;;;6.16;63.51
67430;BME280;54298;52.076;5.264;2023-03-16T00:34:21;101649.0;;;6.3;63.09
67430;BME280;54298;52.076;5.264;2023-03-16T00:35:57;101650.0;;;6.36;63.16
67430;BME280;54298;52.076;5.264;2023-03-16T00:39:09;101655.0;;;6.12;64.05
67430;BME280;54298;52.076;5.264;2023-03-16T00:40:45;101645.0;;;6.15;64.05
67430;BME280;54298;52.076;5.264;2023-03-16T00:42:23;101649.0;;;6.22;63.96
67430;BME280;54298;52.076;5.264;2023-03-16T00:44:00;101640.0;;;6.37;63.73
67430;BME280;54298;52.076;5.264;2023-03-16T00:47:12;101644.0;;;6.36;63.97
67430;BME280;54298;52.076;5.264;2023-03-16T00:48:49;101645.0;;;6.39;63.53
67430;BME280;54298;52.076;5.264;2023-03-16T00:50:25;101645.0;;;6.43;63.66
67430;BME280;54298;52.076;5.264;2023-03-16T00:53:40;101638.0;;;6.4;64.0
67430;BME280;54298;52.076;5.264;2023-03-16T00:55:17;101634.0;;;6.42;64.14
67430;BME280;54298;52.076;5.264;2023-03-16T00:56:53;101638.0;;;6.29;64.59
67430;BME280;54298;52.076;5.264;2023-03-16T01:00:06;101633.0;;;6.49;63.97
67430;BME280;54298;52.076;5.264;2023-03-16T01:01:42;101624.0;;;6.43;64.16
67430;BME280;54298;52.076;5.264;2023-03-16T01:03:19;101620.0;;;6.43;64.25
67430;BME280;54298;52.076;5.264;2023-03-16T01:04:54;101618.0;;;6.49;64.23
67430;BME280;54298;52.076;5.264;2023-03-16T01:08:07;101616.0;;;6.53;64.16
67430;BME280;54298;52.076;5.264;2023-03-16T01:09:44;101607.0;;;6.41;64.72
67430;BME280;54298;52.076;5.264;2023-03-16T01:11:22;101605.0;;;6.37;64.88
67430;BME280;54298;52.076;5.264;2023-03-16T01:14:35;101599.0;;;6.3;65.08
67430;BME280;54298;52.076;5.264;2023-03-16T01:16:12;101598.0;;;6.4;64.74
67430;BME280;54298;52.076;5.264;2023-03-16T01:17:49;101599.0;;;6.56;64.58
67430;BME280;54298;52.076;5.264;2023-03-16T01:21:05;101595.0;;;6.58;64.47
67430;BME280;54298;52.076;5.264;2023-03-16T01:22:42;101598.0;;;6.57;64.62
67430;BME280;54298;52.076;5.264;2023-03-16T01:24:18;101603.0;;;6.49;64.67
67430;BME280;54298;52.076;5.264;2023-03-16T01:29:07;101597.0;;;6.45;64.97
67430;BME280;54298;52.076;5.264;2023-03-16T01:30:43;101588.0;;;6.6;64.8
67430;BME280;54298;52.076;5.264;2023-03-16T01:32:19;101581.0;;;6.65;64.66
67430;BME280;54298;52.076;5.264;2023-03-16T01:35:33;101588.0;;;6.68;64.53
67430;BME280;54298;52.076;5.264;2023-03-16T01:37:09;101584.0;;;6.57;64.81
67430;BME280;54298;52.076;5.264;2023-03-16T01:38:45;101584.0;;;6.6;65.19
67430;BME280;54298;52.076;5.264;2023-03-16T01:41:58;101580.0;;;6.33;66.13
67430;BME280;54298;52.076;5.264;2023-03-16T01:43:36;101571.0;;;6.43;65.95
67430;BME280;54298;52.076;5.264;2023-03-16T01:46:22;101571.0;;;6.47;65.69
67430;BME280;54298;52.076;5.264;2023-03-16T01:47:59;101568.0;;;6.49;65.81
67430;BME280;54298;52.076;5.264;2023-03-16T01:49:36;101569.0;;;6.54;65.8
67430;BME280;54298;52.076;5.264;2023-03-16T01:51:15;101570.0;;;6.4;66.25
67430;BME280;54298;52.076;5.264;2023-03-16T01:54:32;101560.0;;;6.33;66.45
67430;BME280;54298;52.076;5.264;2023-03-16T01:56:12;101553.0;;;6.38;66.55
67430;BME280;54298;52.076;5.264;2023-03-16T01:57:51;101550.0;;;6.48;66.13
67430;BME280;54298;52.076;5.264;2023-03-16T01:59:31;101546.0;;;6.51;66.23
67430;BME280;54298;52.076;5.264;2023-03-16T02:02:52;101543.0;;;6.45;66.6
67430;BME280;54298;52.076;5.264;2023-03-16T02:04:37;101547.0;;;6.38;66.67
67430;BME280;54298;52.076;5.264;2023-03-16T02:06:19;101548.0;;;6.52;66.74
67430;BME280;54298;52.076;5.264;2023-03-16T02:07:55;101537.0;;;6.32;67.25
67430;BME280;54298;52.076;5.264;2023-03-16T02:11:12;101537.0;;;6.52;66.55
67430;BME280;54298;52.076;5.264;2023-03-16T02:12:50;101531.0;;;6.64;66.37
67430;BME280;54298;52.076;5.264;2023-03-16T02:14:27;101533.0;;;6.65;66.3
67430;BME280;54298;52.076;5.264;2023-03-16T02:16:05;101532.0;;;6.61;66.77
67430;BME280;54298;52.076;5.264;2023-03-16T02:19:30;101528.0;;;6.47;67.27
67430;BME280;54298;52.076;5.264;2023-03-16T02:21:18;101528.0;;;6.56;66.92
67430;BME280;54298;52.076;5.264;2023-03-16T02:22:56;101526.0;;;6.57;66.94
67430;BME280;54298;52.076;5.264;2023-03-16T02:24:33;101521.0;;;6.64;67.19
67430;BME280;54298;52.076;5.264;2023-03-16T02:28:01;101519.0;;;6.54;67.33
67430;BME280;54298;52.076;5.264;2023-03-16T02:31:51;101510.0;;;6.61;67.45
67430;BME280;54298;52.076;5.264;2023-03-16T02:33:29;101507.0;;;6.6;67.58
67430;BME280;54298;52.076;5.264;2023-03-16T02:35:09;101510.0;;;6.59;67.55
67430;BME280;54298;52.076;5.264;2023-03-16T02:38:25;101509.0;;;6.59;67.47
67430;BME280;54298;52.076;5.264;2023-03-16T02:40:12;101511.0;;;6.59;67.52
67430;BME280;54298;52.076;5.264;2023-03-16T02:41:54;101513.0;;;6.57;67.56
67430;BME280;54298;52.076;5.264;2023-03-16T02:43:32;101517.0;;;6.62;67.56
67430;BME280;54298;52.076;5.264;2023-03-16T02:46:47;101517.0;;;6.62;67.73
67430;BME280;54298;52.076;5.264;2023-03-16T02:48:27;101513.0;;;6.43;68.72
67430;BME280;54298;52.076;5.264;2023-03-16T02:50:11;101523.0;;;6.58;68.42
67430;BME280;54298;52.076;5.264;2023-03-16T02:51:47;101520.0;;;6.68;68.24
67430;BME280;54298;52.076;5.264;2023-03-16T02:55:00;101526.0;;;6.78;67.92
67430;BME280;54298;52.076;5.264;2023-03-16T02:56:37;101527.0;;;6.74;67.94
67430;BME280;54298;52.076;5.264;2023-03-16T02:58:13;101530.0;;;6.84;67.87
67430;BME280;54298;52.076;5.264;2023-03-16T03:01:26;101530.0;;;6.64;68.12
67430;BME280;54298;52.076;5.264;2023-03-16T03:03:03;101527.0;;;6.57;68.94
67430;BME280;54298;52.076;5.264;2023-03-16T03:04:40;101526.0;;;6.54;69.72
67430;BME280;54298;52.076;5.264;2023-03-16T03:06:17;101521.0;;;6.61;69.45
67430;BME280;54298;52.076;5.264;2023-03-16T03:09:30;101519.0;;;6.66;69.16
67430;BME280;54298;52.076;5.264;2023-03-16T03:11:06;101513.0;;;6.49;69.77
67430;BME280;54298;52.076;5.264;2023-03-16T03:12:42;101514.0;;;6.5;70.02
67430;BME280;54298;52.076;5.264;2023-03-16T03:15:55;101511.0;;;6.41;70.28
67430;BME280;54298;52.076;5.264;2023-03-16T03:17:31;101508.0;;;6.53;70.16
67430;BME280;54298;52.076;5.264;2023-03-16T03:19:07;101505.0;;;6.67;70.06
67430;BME280;54298;52.076;5.264;2023-03-16T03:22:20;101506.0;;;6.42;70.47
67430;BME280;54298;52.076;5.264;2023-03-16T03:23:56;101506.0;;;6.59;70.49
67430;BME280;54298;52.076;5.264;2023-03-16T03:25:32;101499.0;;;6.54;70.64
67430;BME280;54298;52.076;5.264;2023-03-16T03:27:08;101505.0;;;6.62;70.49
67430;BME280;54298;52.076;5.264;2023-03-16T03:30:23;101499.0;;;6.39;71.56
67430;BME280;54298;52.076;5.264;2023-03-16T03:32:01;101502.0;;;6.46;71.28
67430;BME280;54298;52.076;5.264;2023-03-16T03:33:39;101499.0;;;6.45;71.92
67430;BME280;54298;52.076;5.264;2023-03-16T03:36:51;101497.0;;;6.53;71.69
67430;BME280;54298;52.076;5.264;2023-03-16T03:38:27;101492.0;;;6.58;72.05
67430;BME280;54298;52.076;5.264;2023-03-16T03:40:05;101489.0;;;6.37;73.16
67430;BME280;54298;52.076;5.264;2023-03-16T03:43:18;101486.0;;;6.34;73.47
67430;BME280;54298;52.076;5.264;2023-03-16T03:44:55;101491.0;;;6.55;73.11
67430;BME280;54298;52.076;5.264;2023-03-16T03:46:31;101486.0;;;6.52;73.36
67430;BME280;54298;52.076;5.264;2023-03-16T03:48:07;101476.0;;;6.45;73.91
67430;BME280;54298;52.076;5.264;2023-03-16T03:51:19;101470.0;;;6.44;74.58
67430;BME280;54298;52.076;5.264;2023-03-16T03:52:55;101480.0;;;6.35;74.72
67430;BME280;54298;52.076;5.264;2023-03-16T03:54:31;101474.0;;;6.5;74.3
67430;BME280;54298;52.076;5.264;2023-03-16T03:57:44;101476.0;;;6.39;74.8
67430;BME280;54298;52.076;5.264;2023-03-16T03:59:20;101473.0;;;6.41;75.28
67430;BME280;54298;52.076;5.264;2023-03-16T04:00:56;101469.0;;;6.2;76.23
67430;BME280;54298;52.076;5.264;2023-03-16T04:04:09;101470.0;;;6.35;75.61
67430;BME280;54298;52.076;5.264;2023-03-16T04:05:45;101469.0;;;6.37;75.72
67430;BME280;54298;52.076;5.264;2023-03-16T04:07:21;101462.0;;;6.24;76.47
67430;BME280;54298;52.076;5.264;2023-03-16T04:08:57;101460.0;;;6.29;76.33
67430;BME280;54298;52.076;5.264;2023-03-16T04:12:10;101455.0;;;6.3;76.45
67430;BME280;54298;52.076;5.264;2023-03-16T04:13:50;101450.0;;;6.33;76.3
67430;BME280;54298;52.076;5.264;2023-03-16T04:15:26;101453.0;;;6.26;76.64
67430;BME280;54298;52.076;5.264;2023-03-16T04:18:38;101451.0;;;6.29;76.16
67430;BME280;54298;52.076;5.264;2023-03-16T04:20:15;101449.0;;;6.22;76.52
67430;BME280;54298;52.076;5.264;2023-03-16T04:21:51;101441.0;;;6.4;75.86
67430;BME280;54298;52.076;5.264;2023-03-16T04:25:04;101438.0;;;6.12;76.36
67430;BME280;54298;52.076;5.264;2023-03-16T04:26:40;101440.0;;;6.08;76.83
67430;BME280;54298;52.076;5.264;2023-03-16T04:28:16;101440.0;;;6.28;76.08
67430;BME280;54298;52.076;5.264;2023-03-16T04:29:52;101448.0;;;6.24;76.05
67430;BME280;54298;52.076;5.264;2023-03-16T04:33:04;101440.0;;;6.11;76.41
67430;BME280;54298;52.076;5.264;2023-03-16T04:34:40;101434.0;;;6.26;75.97
67430;BME280;54298;52.076;5.264;2023-03-16T04:36:16;101438.0;;;5.98;76.86
67430;BME280;54298;52.076;5.264;2023-03-16T04:39:29;101438.0;;;6.0;77.02
67430;BME280;54298;52.076;5.264;2023-03-16T04:41:05;101434.0;;;6.2;76.27
67430;BME280;54298;52.076;5.264;2023-03-16T04:42:42;101436.0;;;6.1;76.36
67430;BME280;54298;52.076;5.264;2023-03-16T04:45:55;101430.0;;;5.98;76.89
67430;BME280;54298;52.076;5.264;2023-03-16T04:47:31;101436.0;;;6.17;76.44
67430;BME280;54298;52.076;5.264;2023-03-16T04:49:08;101436.0;;;6.05;76.58
67430;BME280;54298;52.076;5.264;2023-03-16T04:52:24;101435.0;;;6.08;76.39
67430;BME280;54298;52.076;5.264;2023-03-16T04:54:00;101435.0;;;6.17;75.86
67430;BME280;54298;52.076;5.264;2023-03-16T04:55:36;101435.0;;;6.2;75.66
67430;BME280;54298;52.076;5.264;2023-03-16T04:57:12;101432.0;;;6.33;75.24
67430;BME280;54298;52.076;5.264;2023-03-16T05:00:26;101426.0;;;5.92;76.2
67430;BME280;54298;52.076;5.264;2023-03-16T05:02:02;101423.0;;;6.08;75.8
67430;BME280;54298;52.076;5.264;2023-03-16T05:03:40;101424.0;;;6.17;75.66
67430;BME280;54298;52.076;5.264;2023-03-16T05:06:53;101424.0;;;6.13;75.33
67430;BME280;54298;52.076;5.264;2023-03-16T05:08:29;101431.0;;;6.24;74.99
67430;BME280;54298;52.076;5.264;2023-03-16T05:10:06;101431.0;;;6.31;74.74
67430;BME280;54298;52.076;5.264;2023-03-16T05:11:42;101432.0;;;6.29;74.69
67430;BME280;54298;52.076;5.264;2023-03-16T05:14:54;101430.0;;;6.25;74.75
67430;BME280;54298;52.076;5.264;2023-03-16T05:16:31;101428.0;;;6.08;75.53
67430;BME280;54298;52.076;5.264;2023-03-16T05:18:08;101430.0;;;6.04;75.41
67430;BME280;54298;52.076;5.264;2023-03-16T05:21:20;101428.0;;;6.21;75.55
67430;BME280;54298;52.076;5.264;2023-03-16T05:22:56;101430.0;;;6.38;74.59
67430;BME280;54298;52.076;5.264;2023-03-16T05:24:32;101425.0;;;6.19;75.22
67430;BME280;54298;52.076;5.264;2023-03-16T05:27:46;101432.0;;;6.3;75.19
67430;BME280;54298;52.076;5.264;2023-03-16T05:29:24;101430.0;;;6.2;75.41
67430;BME280;54298;52.076;5.264;2023-03-16T05:31:00;101431.0;;;6.32;75.17
67430;BME280;54298;52.076;5.264;2023-03-16T05:32:36;101428.0;;;6.01;76.14
67430;BME280;54298;52.076;5.264;2023-03-16T05:35:49;101416.0;;;6.04;76.27
67430;BME280;54298;52.076;5.264;2023-03-16T05:37:26;101428.0;;;6.27;75.66
67430;BME280;54298;52.076;5.264;2023-03-16T05:39:02;101419.0;;;6.21;75.87
67430;BME280;54298;52.076;5.264;2023-03-16T05:42:14;101418.0;;;6.08;76.38
67430;BME280;54298;52.076;5.264;2023-03-16T05:43:51;101419.0;;;6.0;76.75
67430;BME280;54298;52.076;5.264;2023-03-16T05:45:27;101413.0;;;6.0;76.55
67430;BME280;54298;52.076;5.264;2023-03-16T05:48:39;101409.0;;;6.11;76.99
67430;BME280;54298;52.076;5.264;2023-03-16T05:50:16;101409.0;;;6.22;76.62
67430;BME280;54298;52.076;5.264;2023-03-16T05:51:52;101411.0;;;6.2;76.89
67430;BME280;54298;52.076;5.264;2023-03-16T05:55:06;101405.0;;;6.0;77.48
67430;BME280;54298;52.076;5.264;2023-03-16T05:56:42;101405.0;;;5.84;77.59
67430;BME280;54298;52.076;5.264;2023-03-16T05:58:19;101400.0;;;6.05;77.19
67430;BME280;54298;52.076;5.264;2023-03-16T05:59:55;101406.0;;;6.04;77.48
67430;BME280;54298;52.076;5.264;2023-03-16T06:03:07;101403.0;;;6.05;77.12
67430;BME280;54298;52.076;5.264;2023-03-16T06:04:43;101407.0;;;6.07;77.22
67430;BME280;54298;52.076;5.264;2023-03-16T06:06:20;101407.0;;;6.14;77.23
67430;BME280;54298;52.076;5.264;2023-03-16T06:09:34;101403.0;;;6.26;76.62
67430;BME280;54298;52.076;5.264;2023-03-16T06:11:10;101402.0;;;6.06;77.13
67430;BME280;54298;52.076;5.264;2023-03-16T06:12:47;101402.0;;;6.02;77.12
67430;BME280;54298;52.076;5.264;2023-03-16T06:15:59;101405.0;;;6.16;76.58
67430;BME280;54298;52.076;5.264;2023-03-16T06:17:36;101401.0;;;6.16;76.72
67430;BME280;54298;52.076;5.264;2023-03-16T06:19:13;101400.0;;;6.06;76.81
67430;BME280;54298;52.076;5.264;2023-03-16T06:20:49;101400.0;;;6.04;77.02
67430;BME280;54298;52.076;5.264;2023-03-16T06:24:03;101405.0;;;6.14;76.7
67430;BME280;54298;52.076;5.264;2023-03-16T06:25:40;101399.0;;;6.08;76.67
67430;BME280;54298;52.076;5.264;2023-03-16T06:27:16;101394.0;;;6.13;77.16
67430;BME280;54298;52.076;5.264;2023-03-16T06:30:29;101391.0;;;6.15;76.84
67430;BME280;54298;52.076;5.264;2023-03-16T06:32:05;101390.0;;;6.18;77.17
67430;BME280;54298;52.076;5.264;2023-03-16T06:33:41;101384.0;;;6.25;76.69
67430;BME280;54298;52.076;5.264;2023-03-16T06:36:53;101386.0;;;6.25;77.78
67430;BME280;54298;52.076;5.264;2023-03-16T06:38:30;101383.0;;;6.13;78.03
67430;BME280;54298;52.076;5.264;2023-03-16T06:40:07;101381.0;;;6.36;77.62
67430;BME280;54298;52.076;5.264;2023-03-16T06:41:44;101380.0;;;6.33;77.7
67430;BME280;54298;52.076;5.264;2023-03-16T06:44:56;101380.0;;;6.11;78.49
67430;BME280;54298;52.076;5.264;2023-03-16T06:46:32;101378.0;;;6.12;78.8
67430;BME280;54298;52.076;5.264;2023-03-16T06:48:08;101380.0;;;6.25;78.34
67430;BME280;54298;52.076;5.264;2023-03-16T06:51:21;101373.0;;;6.25;78.63
67430;BME280;54298;52.076;5.264;2023-03-16T06:52:57;101374.0;;;6.33;78.12
67430;BME280;54298;52.076;5.264;2023-03-16T06:54:33;101380.0;;;6.36;78.02
67430;BME280;54298;52.076;5.264;2023-03-16T06:57:45;101371.0;;;6.51;77.56
67430;BME280;54298;52.076;5.264;2023-03-16T06:59:22;101378.0;;;6.5;77.7
67430;BME280;54298;52.076;5.264;2023-03-16T07:01:00;101375.0;;;6.54;77.24
67430;BME280;54298;52.076;5.264;2023-03-16T07:02:37;101372.0;;;6.37;77.34
67430;BME280;54298;52.076;5.264;2023-03-16T07:05:49;101370.0;;;6.42;77.31
67430;BME280;54298;52.076;5.264;2023-03-16T07:07:25;101370.0;;;6.4;77.5
67430;BME280;54298;52.076;5.264;2023-03-16T07:09:01;101367.0;;;6.53;77.11
67430;BME280;54298;52.076;5.264;2023-03-16T07:12:14;101361.0;;;6.52;76.8
67430;BME280;54298;52.076;5.264;2023-03-16T07:13:51;101362.0;;;6.41;77.36
67430;BME280;54298;52.076;5.264;2023-03-16T07:15:27;101362.0;;;6.13;78.11
67430;BME280;54298;52.076;5.264;2023-03-16T07:18:39;101364.0;;;6.24;78.2
67430;BME280;54298;52.076;5.264;2023-03-16T07:20:15;101369.0;;;6.26;78.3
67430;BME280;54298;52.076;5.264;2023-03-16T07:21:51;101365.0;;;6.29;78.24
67430;BME280;54298;52.076;5.264;2023-03-16T07:23:28;101365.0;;;6.44;77.67
67430;BME280;54298;52.076;5.264;2023-03-16T07:26:42;101365.0;;;6.38;78.55
67430;BME280;54298;52.076;5.264;2023-03-16T07:28:18;101364.0;;;6.3;78.99
67430;BME280;54298;52.076;5.264;2023-03-16T07:29:55;101361.0;;;6.32;79.08
67430;BME280;54298;52.076;5.264;2023-03-16T07:33:07;101356.0;;;6.46;78.77
67430;BME280;54298;52.076;5.264;2023-03-16T07:34:43;101352.0;;;6.32;79.19
67430;BME280;54298;52.076;5.264;2023-03-16T07:36:19;101356.0;;;6.47;78.55
67430;BME280;54298;52.076;5.264;2023-03-16T07:39:32;101357.0;;;6.52;78.73
67430;BME280;54298;52.076;5.264;2023-03-16T07:41:08;101363.0;;;6.42;78.3
67430;BME280;54298;52.076;5.264;2023-03-16T07:42:44;101360.0;;;6.53;78.74
67430;BME280;54298;52.076;5.264;2023-03-16T07:45:57;101356.0;;;6.6;78.42
67430;BME280;54298;52.076;5.264;2023-03-16T07:47:32;101356.0;;;6.55;77.94
67430;BME280;54298;52.076;5.264;2023-03-16T07:49:10;101356.0;;;6.65;77.77
67430;BME280;54298;52.076;5.264;2023-03-16T07:50:47;101369.0;;;6.81;77.02
67430;BME280;54298;52.076;5.264;2023-03-16T07:53:59;101373.0;;;6.83;76.89
67430;BME280;54298;52.076;5.264;2023-03-16T07:55:35;101375.0;;;6.7;76.73
67430;BME280;54298;52.076;5.264;2023-03-16T07:57:11;101373.0;;;6.73;77.02
67430;BME280;54298;52.076;5.264;2023-03-16T08:00:24;101372.0;;;6.59;77.44
67430;BME280;54298;52.076;5.264;2023-03-16T08:02:00;101360.0;;;6.68;77.81
67430;BME280;54298;52.076;5.264;2023-03-16T08:03:36;101366.0;;;6.81;77.64
67430;BME280;54298;52.076;5.264;2023-03-16T08:06:49;101359.0;;;6.8;77.61
67430;BME280;54298;52.076;5.264;2023-03-16T08:08:25;101353.0;;;6.96;77.02
67430;BME280;54298;52.076;5.264;2023-03-16T08:10:02;101352.0;;;6.92;76.75
67430;BME280;54298;52.076;5.264;2023-03-16T08:11:38;101355.0;;;6.9;76.95
67430;BME280;54298;52.076;5.264;2023-03-16T08:14:51;101337.0;;;7.11;76.37
67430;BME280;54298;52.076;5.264;2023-03-16T08:16:27;101339.0;;;6.86;76.67
67430;BME280;54298;52.076;5.264;2023-03-16T08:18:03;101339.0;;;7.05;76.16
67430;BME280;54298;52.076;5.264;2023-03-16T08:21:15;101338.0;;;7.08;75.69
67430;BME280;54298;52.076;5.264;2023-03-16T08:22:53;101337.0;;;7.19;74.69
67430;BME280;54298;52.076;5.264;2023-03-16T08:24:29;101333.0;;;7.18;74.77
67430;BME280;54298;52.076;5.264;2023-03-16T08:27:41;101340.0;;;7.26;74.27
67430;BME280;54298;52.076;5.264;2023-03-16T08:29:17;101330.0;;;7.49;73.37
67430;BME280;54298;52.076;5.264;2023-03-16T08:30:54;101330.0;;;7.42;73.39
67430;BME280;54298;52.076;5.264;2023-03-16T08:32:31;101344.0;;;7.64;72.72
67430;BME280;54298;52.076;5.264;2023-03-16T08:35:45;101338.0;;;7.35;73.12
67430;BME280;54298;52.076;5.264;2023-03-16T08:37:23;101344.0;;;7.52;72.47
67430;BME280;54298;52.076;5.264;2023-03-16T08:38:59;101347.0;;;7.57;72.41
67430;BME280;54298;52.076;5.264;2023-03-16T08:42:12;101348.0;;;7.49;72.11
67430;BME280;54298;52.076;5.264;2023-03-16T08:43:48;101349.0;;;7.54;71.72
67430;BME280;54298;52.076;5.264;2023-03-16T08:45:24;101355.0;;;7.61;71.77
67430;BME280;54298;52.076;5.264;2023-03-16T08:48:36;101355.0;;;7.47;71.58
67430;BME280;54298;52.076;5.264;2023-03-16T08:50:13;101349.0;;;7.66;71.52
67430;BME280;54298;52.076;5.264;2023-03-16T08:51:49;101343.0;;;7.7;71.19
67430;BME280;54298;52.076;5.264;2023-03-16T08:53:25;101344.0;;;7.76;70.77
67430;BME280;54298;52.076;5.264;2023-03-16T08:56:38;101346.0;;;7.78;70.88
67430;BME280;54298;52.076;5.264;2023-03-16T08:58:14;101343.0;;;7.81;70.14
67430;BME280;54298;52.076;5.264;2023-03-16T08:59:50;101344.0;;;7.8;69.89
67430;BME280;54298;52.076;5.264;2023-03-16T09:03:03;101335.0;;;7.79;70.19
67430;BME280;54298;52.076;5.264;2023-03-16T09:04:41;101330.0;;;7.7;69.44
67430;BME280;54298;52.076;5.264;2023-03-16T09:06:17;101330.0;;;7.58;69.72
67430;BME280;54298;52.076;5.264;2023-03-16T09:09:30;101323.0;;;7.89;69.22
67430;BME280;54298;52.076;5.264;2023-03-16T09:11:08;101322.0;;;7.95;69.05
67430;BME280;54298;52.076;5.264;2023-03-16T09:12:45;101326.0;;;7.82;68.86
67430;BME280;54298;52.076;5.264;2023-03-16T09:14:21;101331.0;;;7.85;68.61
67430;BME280;54298;52.076;5.264;2023-03-16T09:17:33;101323.0;;;7.79;69.05
67430;BME280;54298;52.076;5.264;2023-03-16T09:19:09;101323.0;;;7.88;68.69
67430;BME280;54298;52.076;5.264;2023-03-16T09:20:46;101322.0;;;7.78;68.91
67430;BME280;54298;52.076;5.264;2023-03-16T09:26:13;101330.0;;;7.87;68.91
67430;BME280;54298;52.076;5.264;2023-03-16T09:27:49;101332.0;;;7.96;68.63
67430;BME280;54298;52.076;5.264;2023-03-16T09:29:26;101326.0;;;7.9;68.49
67430;BME280;54298;52.076;5.264;2023-03-16T09:32:39;101325.0;;;7.94;68.69
67430;BME280;54298;52.076;5.264;2023-03-16T09:34:15;101318.0;;;8.14;68.16
67430;BME280;54298;52.076;5.264;2023-03-16T09:35:51;101322.0;;;8.19;68.14
67430;BME280;54298;52.076;5.264;2023-03-16T09:37:28;101330.0;;;8.19;67.8
67430;BME280;54298;52.076;5.264;2023-03-16T09:40:40;101320.0;;;8.16;67.98
67430;BME280;54298;52.076;5.264;2023-03-16T09:42:19;101319.0;;;8.22;67.41
67430;BME280;54298;52.076;5.264;2023-03-16T09:44:08;101317.0;;;8.42;67.19
67430;BME280;54298;52.076;5.264;2023-03-16T09:45:56;101312.0;;;8.63;66.52
67430;BME280;54298;52.076;5.264;2023-03-16T09:49:18;101309.0;;;8.41;66.14
67430;BME280;54298;52.076;5.264;2023-03-16T09:50:56;101309.0;;;8.6;66.12
67430;BME280;54298;52.076;5.264;2023-03-16T09:52:41;101298.0;;;8.58;65.98
67430;BME280;54298;52.076;5.264;2023-03-16T09:54:24;101309.0;;;8.65;65.52
67430;BME280;54298;52.076;5.264;2023-03-16T09:57:45;101311.0;;;8.76;65.25
67430;BME280;54298;52.076;5.264;2023-03-16T09:59:23;101299.0;;;8.69;65.06
67430;BME280;54298;52.076;5.264;2023-03-16T10:01:06;101306.0;;;8.67;64.94
67430;BME280;54298;52.076;5.264;2023-03-16T10:03:13;101302.0;;;8.88;64.86
67430;BME280;54298;52.076;5.264;2023-03-16T10:04:56;101293.0;;;8.94;64.03
67430;BME280;54298;52.076;5.264;2023-03-16T10:06:44;101297.0;;;8.98;64.58
67430;BME280;54298;52.076;5.264;2023-03-16T10:10:19;101298.0;;;9.03;64.41
67430;BME280;54298;52.076;5.264;2023-03-16T10:12:02;101297.0;;;9.13;63.89
67430;BME280;54298;52.076;5.264;2023-03-16T10:13:46;101297.0;;;9.17;64.3
67430;BME280;54298;52.076;5.264;2023-03-16T10:15:26;101292.0;;;9.16;63.2
67430;BME280;54298;52.076;5.264;2023-03-16T10:17:10;101286.0;;;9.27;62.98
67430;BME280;54298;52.076;5.264;2023-03-16T10:20:36;101283.0;;;9.39;63.41
67430;BME280;54298;52.076;5.264;2023-03-16T10:22:18;101296.0;;;9.23;63.21
67430;BME280;54298;52.076;5.264;2023-03-16T10:23:58;101296.0;;;9.3;62.89
67430;BME280;54298;52.076;5.264;2023-03-16T10:25:42;101292.0;;;9.31;62.58
67430;BME280;54298;52.076;5.264;2023-03-16T10:29:03;101295.0;;;9.31;62.46
67430;BME280;54298;52.076;5.264;2023-03-16T10:30:41;101293.0;;;9.33;62.57
67430;BME280;54298;52.076;5.264;2023-03-16T10:32:18;101282.0;;;9.41;62.31
67430;BME280;54298;52.076;5.264;2023-03-16T10:34:01;101281.0;;;9.48;62.08
67430;BME280;54298;52.076;5.264;2023-03-16T10:37:23;101282.0;;;9.5;61.13
67430;BME280;54298;52.076;5.264;2023-03-16T10:39:02;101274.0;;;9.77;60.78
67430;BME280;54298;52.076;5.264;2023-03-16T10:40:40;101273.0;;;9.8;61.08
67430;BME280;54298;52.076;5.264;2023-03-16T10:42:18;101267.0;;;9.83;60.42
67430;BME280;54298;52.076;5.264;2023-03-16T10:45:35;101261.0;;;9.85;59.8
67430;BME280;54298;52.076;5.264;2023-03-16T10:47:17;101267.0;;;10.0;59.57
67430;BME280;54298;52.076;5.264;2023-03-16T10:48:55;101265.0;;;9.91;58.78
67430;BME280;54298;52.076;5.264;2023-03-16T10:52:13;101262.0;;;9.98;59.37
67430;BME280;54298;52.076;5.264;2023-03-16T10:53:56;101260.0;;;10.05;59.12
67430;BME280;54298;52.076;5.264;2023-03-16T10:55:41;101263.0;;;10.1;58.91
67430;BME280;54298;52.076;5.264;2023-03-16T10:57:22;101257.0;;;10.06;58.85
67430;BME280;54298;52.076;5.264;2023-03-16T11:01:09;101250.0;;;10.22;58.08
67430;BME280;54298;52.076;5.264;2023-03-16T11:02:46;101259.0;;;10.27;57.35
67430;BME280;54298;52.076;5.264;2023-03-16T11:04:23;101245.0;;;10.23;58.09
67430;BME280;54298;52.076;5.264;2023-03-16T11:06:00;101245.0;;;10.42;57.92
67430;BME280;54298;52.076;5.264;2023-03-16T11:09:19;101243.0;;;10.48;57.3
67430;BME280;54298;52.076;5.264;2023-03-16T11:10:58;101240.0;;;10.61;57.49
67430;BME280;54298;52.076;5.264;2023-03-16T11:14:12;101236.0;;;10.75;56.98
67430;BME280;54298;52.076;5.264;2023-03-16T11:15:51;101234.0;;;10.67;56.39
67430;BME280;54298;52.076;5.264;2023-03-16T11:19:16;101228.0;;;10.75;56.57
67430;BME280;54298;52.076;5.264;2023-03-16T11:20:57;101220.0;;;10.77;56.28
67430;BME280;54298;52.076;5.264;2023-03-16T11:22:39;101211.0;;;10.96;56.23